sensor_id;sensor_type;location;lat;lon;timestamp;P1;durP1;ratioP1;P2;durP2;ratioP2
72117;SDS011;59992;47.490;8.736;2022-07-03T00:02:17;3.10;;;2.20;;
72117;SDS011;59992;47.490;8.736;2022-07-03T00:05:07;4.90;;;2.30;;
72117;SDS011;59992;47.490;8.736;2022-07-03T00:07:56;5.70;;;2.30;;
72117;SDS011;59992;47.490;8.736;2022-07-03T00:10:45;3.60;;;2.20;;
72117;SDS011;59992;47.490;8.736;2022-07-03T00:13:34;3.10;;;2.30;;
72117;SDS011;59992;47.490;8.736;2022-07-03T00:16:23;3.50;;;2.00;;
72117;SDS011;59992;47.490;8.736;2022-07-03T00:19:11;4.20;;;2.00;;
72117;SDS011;59992;47.490;8.736;2022-07-03T00:22:03;3.80;;;2.40;;
72117;SDS011;59992;47.490;8.736;2022-07-03T00:24:53;3.20;;;2.30;;
72117;SDS011;59992;47.490;8.736;2022-07-03T00:27:48;3.40;;;2.50;;
72117;SDS011;59992;47.490;8.736;2022-07-03T00:30:37;7.50;;;2.30;;
72117;SDS011;59992;47.490;8.736;2022-07-03T00:33:26;2.80;;;2.10;;
72117;SDS011;59992;47.490;8.736;2022-07-03T00:36:17;3.60;;;2.10;;
72117;SDS011;59992;47.490;8.736;2022-07-03T00:39:06;4.40;;;2.70;;
72117;SDS011;59992;47.490;8.736;2022-07-03T00:41:59;3.20;;;2.50;;
72117;SDS011;59992;47.490;8.736;2022-07-03T00:44:50;3.10;;;2.40;;
72117;SDS011;59992;47.490;8.736;2022-07-03T00:47:39;4.10;;;2.10;;
72117;SDS011;59992;47.490;8.736;2022-07-03T00:50:34;3.90;;;2.40;;
72117;SDS011;59992;47.490;8.736;2022-07-03T00:53:26;3.30;;;2.60;;
72117;SDS011;59992;47.490;8.736;2022-07-03T00:56:16;4.20;;;2.50;;
72117;SDS011;59992;47.490;8.736;2022-07-03T00:59:10;5.20;;;2.60;;
72117;SDS011;59992;47.490;8.736;2022-07-03T01:02:01;3.70;;;2.60;;
72117;SDS011;59992;47.490;8.736;2022-07-03T01:04:54;4.50;;;2.70;;
72117;SDS011;59992;47.490;8.736;2022-07-03T01:07:56;4.80;;;2.70;;
72117;SDS011;59992;47.490;8.736;2022-07-03T01:11:04;5.00;;;2.50;;
72117;SDS011;59992;47.490;8.736;2022-07-03T01:14:01;5.40;;;2.50;;
72117;SDS011;59992;47.490;8.736;2022-07-03T01:17:03;3.90;;;2.60;;
72117;SDS011;59992;47.490;8.736;2022-07-03T01:19:55;3.40;;;2.60;;
72117;SDS011;59992;47.490;8.736;2022-07-03T01:22:48;4.30;;;2.40;;
72117;SDS011;59992;47.490;8.736;2022-07-03T01:25:42;4.20;;;2.40;;
72117;SDS011;59992;47.490;8.736;2022-07-03T01:28:34;3.20;;;2.10;;
72117;SDS011;59992;47.490;8.736;2022-07-03T01:31:30;6.90;;;2.30;;
72117;SDS011;59992;47.490;8.736;2022-07-03T01:34:19;5.90;;;2.50;;
72117;SDS011;59992;47.490;8.736;2022-07-03T01:37:09;7.20;;;2.80;;
72117;SDS011;59992;47.490;8.736;2022-07-03T01:40:01;3.90;;;2.30;;
72117;SDS011;59992;47.490;8.736;2022-07-03T01:42:51;3.70;;;2.50;;
72117;SDS011;59992;47.490;8.736;2022-07-03T01:45:42;4.20;;;2.30;;
72117;SDS011;59992;47.490;8.736;2022-07-03T01:48:33;4.40;;;2.70;;
72117;SDS011;59992;47.490;8.736;2022-07-03T01:51:22;3.80;;;2.40;;
72117;SDS011;59992;47.490;8.736;2022-07-03T01:54:12;3.80;;;2.70;;
72117;SDS011;59992;47.490;8.736;2022-07-03T01:57:01;2.90;;;2.20;;
72117;SDS011;59992;47.490;8.736;2022-07-03T01:59:52;4.70;;;2.70;;
72117;SDS011;59992;47.490;8.736;2022-07-03T02:02:52;5.00;;;2.20;;
72117;SDS011;59992;47.490;8.736;2022-07-03T02:05:44;4.20;;;2.40;;
72117;SDS011;59992;47.490;8.736;2022-07-03T02:08:37;3.50;;;2.40;;
72117;SDS011;59992;47.490;8.736;2022-07-03T02:11:35;6.10;;;2.70;;
72117;SDS011;59992;47.490;8.736;2022-07-03T02:14:28;10.30;;;2.90;;
72117;SDS011;59992;47.490;8.736;2022-07-03T02:17:20;3.70;;;2.40;;
72117;SDS011;59992;47.490;8.736;2022-07-03T02:20:09;3.50;;;2.40;;
72117;SDS011;59992;47.490;8.736;2022-07-03T02:22:59;3.40;;;2.50;;
72117;SDS011;59992;47.490;8.736;2022-07-03T02:25:50;4.10;;;2.60;;
72117;SDS011;59992;47.490;8.736;2022-07-03T02:28:49;4.20;;;2.40;;
72117;SDS011;59992;47.490;8.736;2022-07-03T02:31:43;4.30;;;2.40;;
72117;SDS011;59992;47.490;8.736;2022-07-03T02:34:34;3.60;;;2.30;;
72117;SDS011;59992;47.490;8.736;2022-07-03T02:37:28;4.10;;;2.40;;
72117;SDS011;59992;47.490;8.736;2022-07-03T02:40:22;3.50;;;2.50;;
72117;SDS011;59992;47.490;8.736;2022-07-03T02:43:18;5.00;;;2.40;;
72117;SDS011;59992;47.490;8.736;2022-07-03T02:46:12;3.70;;;2.50;;
72117;SDS011;59992;47.490;8.736;2022-07-03T02:49:30;3.40;;;2.70;;
72117;SDS011;59992;47.490;8.736;2022-07-03T02:52:34;3.50;;;2.60;;
72117;SDS011;59992;47.490;8.736;2022-07-03T02:55:34;4.00;;;2.50;;
72117;SDS011;59992;47.490;8.736;2022-07-03T02:58:40;4.60;;;2.60;;
72117;SDS011;59992;47.490;8.736;2022-07-03T03:01:45;4.50;;;2.40;;
72117;SDS011;59992;47.490;8.736;2022-07-03T03:04:44;3.00;;;2.40;;
72117;SDS011;59992;47.490;8.736;2022-07-03T03:07:40;4.50;;;2.80;;
72117;SDS011;59992;47.490;8.736;2022-07-03T03:10:39;6.30;;;2.60;;
72117;SDS011;59992;47.490;8.736;2022-07-03T03:13:29;6.60;;;2.70;;
72117;SDS011;59992;47.490;8.736;2022-07-03T03:16:19;4.20;;;2.30;;
72117;SDS011;59992;47.490;8.736;2022-07-03T03:19:08;4.50;;;2.60;;
72117;SDS011;59992;47.490;8.736;2022-07-03T03:22:03;4.00;;;2.60;;
72117;SDS011;59992;47.490;8.736;2022-07-03T03:24:58;4.60;;;2.80;;
72117;SDS011;59992;47.490;8.736;2022-07-03T03:27:48;4.10;;;2.30;;
72117;SDS011;59992;47.490;8.736;2022-07-03T03:30:37;4.10;;;2.40;;
72117;SDS011;59992;47.490;8.736;2022-07-03T03:33:26;3.90;;;2.40;;
72117;SDS011;59992;47.490;8.736;2022-07-03T03:36:17;4.40;;;2.80;;
72117;SDS011;59992;47.490;8.736;2022-07-03T03:39:07;4.50;;;2.60;;
72117;SDS011;59992;47.490;8.736;2022-07-03T03:41:55;4.60;;;2.70;;
72117;SDS011;59992;47.490;8.736;2022-07-03T03:44:44;7.00;;;2.70;;
72117;SDS011;59992;47.490;8.736;2022-07-03T03:47:33;4.20;;;2.80;;
72117;SDS011;59992;47.490;8.736;2022-07-03T03:50:22;4.60;;;2.50;;
72117;SDS011;59992;47.490;8.736;2022-07-03T03:53:11;3.90;;;2.10;;
72117;SDS011;59992;47.490;8.736;2022-07-03T03:56:00;3.60;;;2.70;;
72117;SDS011;59992;47.490;8.736;2022-07-03T03:58:50;5.00;;;2.50;;
72117;SDS011;59992;47.490;8.736;2022-07-03T04:01:39;4.30;;;2.90;;
72117;SDS011;59992;47.490;8.736;2022-07-03T04:04:29;6.10;;;2.40;;
72117;SDS011;59992;47.490;8.736;2022-07-03T04:07:18;3.40;;;2.40;;
72117;SDS011;59992;47.490;8.736;2022-07-03T04:10:07;5.70;;;2.60;;
72117;SDS011;59992;47.490;8.736;2022-07-03T04:12:56;6.80;;;2.60;;
72117;SDS011;59992;47.490;8.736;2022-07-03T04:15:44;3.70;;;2.20;;
72117;SDS011;59992;47.490;8.736;2022-07-03T04:18:34;2.80;;;2.30;;
72117;SDS011;59992;47.490;8.736;2022-07-03T04:21:22;4.30;;;2.50;;
72117;SDS011;59992;47.490;8.736;2022-07-03T04:24:11;4.10;;;2.70;;
72117;SDS011;59992;47.490;8.736;2022-07-03T04:26:59;4.20;;;2.70;;
72117;SDS011;59992;47.490;8.736;2022-07-03T04:29:48;3.80;;;2.20;;
72117;SDS011;59992;47.490;8.736;2022-07-03T04:32:37;6.40;;;2.50;;
72117;SDS011;59992;47.490;8.736;2022-07-03T04:35:25;3.50;;;2.00;;
72117;SDS011;59992;47.490;8.736;2022-07-03T04:38:14;2.30;;;1.60;;
72117;SDS011;59992;47.490;8.736;2022-07-03T04:41:02;4.10;;;2.00;;
72117;SDS011;59992;47.490;8.736;2022-07-03T04:43:51;5.40;;;2.00;;
72117;SDS011;59992;47.490;8.736;2022-07-03T04:46:40;3.70;;;1.80;;
72117;SDS011;59992;47.490;8.736;2022-07-03T04:49:29;2.30;;;1.70;;
72117;SDS011;59992;47.490;8.736;2022-07-03T04:52:18;3.80;;;1.90;;
72117;SDS011;59992;47.490;8.736;2022-07-03T04:55:07;3.60;;;1.80;;
72117;SDS011;59992;47.490;8.736;2022-07-03T04:57:57;3.20;;;1.90;;
72117;SDS011;59992;47.490;8.736;2022-07-03T05:00:46;3.60;;;1.90;;
72117;SDS011;59992;47.490;8.736;2022-07-03T05:03:36;4.80;;;1.90;;
72117;SDS011;59992;47.490;8.736;2022-07-03T05:06:25;3.40;;;1.60;;
72117;SDS011;59992;47.490;8.736;2022-07-03T05:09:14;3.60;;;1.90;;
72117;SDS011;59992;47.490;8.736;2022-07-03T05:12:04;4.30;;;1.80;;
72117;SDS011;59992;47.490;8.736;2022-07-03T05:14:54;1.90;;;1.70;;
72117;SDS011;59992;47.490;8.736;2022-07-03T05:17:42;3.00;;;1.50;;
72117;SDS011;59992;47.490;8.736;2022-07-03T05:20:32;3.00;;;1.80;;
72117;SDS011;59992;47.490;8.736;2022-07-03T05:23:21;2.40;;;1.70;;
72117;SDS011;59992;47.490;8.736;2022-07-03T05:26:10;3.80;;;2.00;;
72117;SDS011;59992;47.490;8.736;2022-07-03T05:28:58;3.60;;;1.80;;
72117;SDS011;59992;47.490;8.736;2022-07-03T05:31:46;3.80;;;2.00;;
72117;SDS011;59992;47.490;8.736;2022-07-03T05:34:35;3.10;;;1.60;;
72117;SDS011;59992;47.490;8.736;2022-07-03T05:37:24;3.40;;;1.90;;
72117;SDS011;59992;47.490;8.736;2022-07-03T05:40:13;2.00;;;1.60;;
72117;SDS011;59992;47.490;8.736;2022-07-03T05:43:02;2.90;;;1.70;;
72117;SDS011;59992;47.490;8.736;2022-07-03T05:45:50;2.80;;;1.80;;
72117;SDS011;59992;47.490;8.736;2022-07-03T05:48:39;2.80;;;1.50;;
72117;SDS011;59992;47.490;8.736;2022-07-03T05:51:28;2.20;;;1.50;;
72117;SDS011;59992;47.490;8.736;2022-07-03T05:54:17;2.90;;;1.50;;
72117;SDS011;59992;47.490;8.736;2022-07-03T05:57:05;3.80;;;1.60;;
72117;SDS011;59992;47.490;8.736;2022-07-03T05:59:54;2.00;;;1.30;;
72117;SDS011;59992;47.490;8.736;2022-07-03T06:02:42;5.10;;;1.60;;
72117;SDS011;59992;47.490;8.736;2022-07-03T06:05:31;2.30;;;1.40;;
72117;SDS011;59992;47.490;8.736;2022-07-03T06:08:20;2.80;;;1.40;;
72117;SDS011;59992;47.490;8.736;2022-07-03T06:11:09;1.60;;;1.40;;
72117;SDS011;59992;47.490;8.736;2022-07-03T06:13:57;2.70;;;1.30;;
72117;SDS011;59992;47.490;8.736;2022-07-03T06:16:46;3.10;;;1.40;;
72117;SDS011;59992;47.490;8.736;2022-07-03T06:19:34;2.20;;;1.20;;
72117;SDS011;59992;47.490;8.736;2022-07-03T06:22:23;2.10;;;1.50;;
72117;SDS011;59992;47.490;8.736;2022-07-03T06:25:12;2.50;;;1.20;;
72117;SDS011;59992;47.490;8.736;2022-07-03T06:28:01;1.50;;;1.30;;
72117;SDS011;59992;47.490;8.736;2022-07-03T06:30:51;4.60;;;1.40;;
72117;SDS011;59992;47.490;8.736;2022-07-03T06:33:39;3.20;;;1.30;;
72117;SDS011;59992;47.490;8.736;2022-07-03T06:36:28;1.70;;;1.30;;
72117;SDS011;59992;47.490;8.736;2022-07-03T06:39:17;3.50;;;1.60;;
72117;SDS011;59992;47.490;8.736;2022-07-03T06:42:06;1.60;;;1.40;;
72117;SDS011;59992;47.490;8.736;2022-07-03T06:44:55;2.70;;;1.40;;
72117;SDS011;59992;47.490;8.736;2022-07-03T06:47:43;2.20;;;1.50;;
72117;SDS011;59992;47.490;8.736;2022-07-03T06:50:32;2.10;;;1.50;;
72117;SDS011;59992;47.490;8.736;2022-07-03T06:53:21;1.60;;;1.30;;
72117;SDS011;59992;47.490;8.736;2022-07-03T06:56:10;3.60;;;1.40;;
72117;SDS011;59992;47.490;8.736;2022-07-03T06:58:59;1.90;;;1.30;;
72117;SDS011;59992;47.490;8.736;2022-07-03T07:01:47;1.70;;;1.40;;
72117;SDS011;59992;47.490;8.736;2022-07-03T07:04:36;2.20;;;1.40;;
72117;SDS011;59992;47.490;8.736;2022-07-03T07:07:24;2.20;;;1.30;;
72117;SDS011;59992;47.490;8.736;2022-07-03T07:10:13;2.40;;;1.50;;
72117;SDS011;59992;47.490;8.736;2022-07-03T07:13:01;2.30;;;1.40;;
72117;SDS011;59992;47.490;8.736;2022-07-03T07:15:50;1.90;;;1.40;;
72117;SDS011;59992;47.490;8.736;2022-07-03T07:18:40;4.10;;;1.50;;
72117;SDS011;59992;47.490;8.736;2022-07-03T07:21:29;2.20;;;1.30;;
72117;SDS011;59992;47.490;8.736;2022-07-03T07:24:18;2.30;;;1.30;;
72117;SDS011;59992;47.490;8.736;2022-07-03T07:27:07;4.00;;;1.20;;
72117;SDS011;59992;47.490;8.736;2022-07-03T07:29:55;2.20;;;1.20;;
72117;SDS011;59992;47.490;8.736;2022-07-03T07:32:44;1.90;;;1.10;;
72117;SDS011;59992;47.490;8.736;2022-07-03T07:35:35;2.30;;;1.30;;
72117;SDS011;59992;47.490;8.736;2022-07-03T07:38:24;1.50;;;1.10;;
72117;SDS011;59992;47.490;8.736;2022-07-03T07:41:13;1.80;;;0.90;;
72117;SDS011;59992;47.490;8.736;2022-07-03T07:44:02;2.10;;;1.10;;
72117;SDS011;59992;47.490;8.736;2022-07-03T07:46:51;2.30;;;1.20;;
72117;SDS011;59992;47.490;8.736;2022-07-03T07:49:40;1.10;;;0.80;;
72117;SDS011;59992;47.490;8.736;2022-07-03T07:52:29;4.00;;;1.10;;
72117;SDS011;59992;47.490;8.736;2022-07-03T07:55:17;1.90;;;0.90;;
72117;SDS011;59992;47.490;8.736;2022-07-03T07:58:07;1.10;;;1.00;;
72117;SDS011;59992;47.490;8.736;2022-07-03T08:00:56;1.70;;;1.00;;
72117;SDS011;59992;47.490;8.736;2022-07-03T08:04:03;1.50;;;1.00;;
72117;SDS011;59992;47.490;8.736;2022-07-03T08:07:10;1.30;;;1.00;;
72117;SDS011;59992;47.490;8.736;2022-07-03T08:10:00;1.60;;;1.00;;
72117;SDS011;59992;47.490;8.736;2022-07-03T08:12:48;2.90;;;1.10;;
72117;SDS011;59992;47.490;8.736;2022-07-03T08:15:37;2.40;;;1.00;;
72117;SDS011;59992;47.490;8.736;2022-07-03T08:18:25;1.70;;;1.00;;
72117;SDS011;59992;47.490;8.736;2022-07-03T08:21:14;2.70;;;1.10;;
72117;SDS011;59992;47.490;8.736;2022-07-03T08:24:03;2.40;;;0.90;;
72117;SDS011;59992;47.490;8.736;2022-07-03T08:26:52;1.30;;;0.90;;
72117;SDS011;59992;47.490;8.736;2022-07-03T08:29:40;1.50;;;1.00;;
72117;SDS011;59992;47.490;8.736;2022-07-03T08:32:29;3.30;;;0.80;;
72117;SDS011;59992;47.490;8.736;2022-07-03T08:35:18;2.60;;;1.10;;
72117;SDS011;59992;47.490;8.736;2022-07-03T08:38:07;2.10;;;1.00;;
72117;SDS011;59992;47.490;8.736;2022-07-03T08:40:56;1.30;;;1.10;;
72117;SDS011;59992;47.490;8.736;2022-07-03T08:43:46;1.50;;;0.90;;
72117;SDS011;59992;47.490;8.736;2022-07-03T08:46:38;1.40;;;0.90;;
72117;SDS011;59992;47.490;8.736;2022-07-03T08:49:27;2.10;;;1.00;;
72117;SDS011;59992;47.490;8.736;2022-07-03T08:52:16;2.50;;;0.80;;
72117;SDS011;59992;47.490;8.736;2022-07-03T08:55:06;0.90;;;0.80;;
72117;SDS011;59992;47.490;8.736;2022-07-03T08:57:57;2.40;;;0.90;;
72117;SDS011;59992;47.490;8.736;2022-07-03T09:00:47;1.10;;;0.70;;
72117;SDS011;59992;47.490;8.736;2022-07-03T09:03:36;1.70;;;0.90;;
72117;SDS011;59992;47.490;8.736;2022-07-03T09:06:26;2.40;;;0.80;;
72117;SDS011;59992;47.490;8.736;2022-07-03T09:09:20;1.60;;;0.80;;
72117;SDS011;59992;47.490;8.736;2022-07-03T09:12:10;2.00;;;0.80;;
72117;SDS011;59992;47.490;8.736;2022-07-03T09:15:00;0.70;;;0.70;;
72117;SDS011;59992;47.490;8.736;2022-07-03T09:17:59;3.10;;;0.90;;
72117;SDS011;59992;47.490;8.736;2022-07-03T09:20:51;1.80;;;0.80;;
72117;SDS011;59992;47.490;8.736;2022-07-03T09:23:50;0.90;;;0.70;;
72117;SDS011;59992;47.490;8.736;2022-07-03T09:26:49;2.40;;;0.90;;
72117;SDS011;59992;47.490;8.736;2022-07-03T09:29:39;1.60;;;0.90;;
72117;SDS011;59992;47.490;8.736;2022-07-03T09:32:42;1.00;;;0.70;;
72117;SDS011;59992;47.490;8.736;2022-07-03T09:35:32;2.10;;;0.70;;
72117;SDS011;59992;47.490;8.736;2022-07-03T09:38:21;2.90;;;0.90;;
72117;SDS011;59992;47.490;8.736;2022-07-03T09:41:10;2.40;;;0.70;;
72117;SDS011;59992;47.490;8.736;2022-07-03T09:43:59;3.80;;;0.90;;
72117;SDS011;59992;47.490;8.736;2022-07-03T09:46:47;0.90;;;0.70;;
72117;SDS011;59992;47.490;8.736;2022-07-03T09:49:54;1.70;;;1.00;;
72117;SDS011;59992;47.490;8.736;2022-07-03T09:52:43;0.90;;;0.70;;
72117;SDS011;59992;47.490;8.736;2022-07-03T09:55:33;1.50;;;0.70;;
72117;SDS011;59992;47.490;8.736;2022-07-03T09:58:21;1.70;;;1.00;;
72117;SDS011;59992;47.490;8.736;2022-07-03T10:01:16;0.80;;;0.60;;
72117;SDS011;59992;47.490;8.736;2022-07-03T10:04:09;0.90;;;0.60;;
72117;SDS011;59992;47.490;8.736;2022-07-03T10:07:02;2.10;;;0.70;;
72117;SDS011;59992;47.490;8.736;2022-07-03T10:09:52;1.20;;;0.80;;
72117;SDS011;59992;47.490;8.736;2022-07-03T10:12:40;1.00;;;0.60;;
72117;SDS011;59992;47.490;8.736;2022-07-03T10:15:31;1.40;;;0.80;;
72117;SDS011;59992;47.490;8.736;2022-07-03T10:18:23;1.40;;;0.80;;
72117;SDS011;59992;47.490;8.736;2022-07-03T10:21:19;1.40;;;0.60;;
72117;SDS011;59992;47.490;8.736;2022-07-03T10:24:07;0.90;;;0.60;;
72117;SDS011;59992;47.490;8.736;2022-07-03T10:26:58;1.60;;;0.90;;
72117;SDS011;59992;47.490;8.736;2022-07-03T10:29:47;0.90;;;0.50;;
72117;SDS011;59992;47.490;8.736;2022-07-03T10:32:39;1.10;;;0.70;;
72117;SDS011;59992;47.490;8.736;2022-07-03T10:35:33;1.10;;;0.80;;
72117;SDS011;59992;47.490;8.736;2022-07-03T10:38:30;3.20;;;0.70;;
72117;SDS011;59992;47.490;8.736;2022-07-03T10:41:26;1.00;;;0.60;;
72117;SDS011;59992;47.490;8.736;2022-07-03T10:44:49;1.50;;;0.80;;
72117;SDS011;59992;47.490;8.736;2022-07-03T10:47:50;1.70;;;0.80;;
72117;SDS011;59992;47.490;8.736;2022-07-03T10:50:39;1.00;;;0.60;;
72117;SDS011;59992;47.490;8.736;2022-07-03T10:53:28;1.30;;;0.60;;
72117;SDS011;59992;47.490;8.736;2022-07-03T10:56:16;1.70;;;0.80;;
72117;SDS011;59992;47.490;8.736;2022-07-03T10:59:05;0.90;;;0.70;;
72117;SDS011;59992;47.490;8.736;2022-07-03T11:01:53;1.00;;;0.80;;
72117;SDS011;59992;47.490;8.736;2022-07-03T11:05:12;1.90;;;0.80;;
72117;SDS011;59992;47.490;8.736;2022-07-03T11:08:12;1.40;;;0.60;;
72117;SDS011;59992;47.490;8.736;2022-07-03T11:11:01;1.10;;;0.80;;
72117;SDS011;59992;47.490;8.736;2022-07-03T11:14:20;1.50;;;1.00;;
72117;SDS011;59992;47.490;8.736;2022-07-03T11:17:19;2.20;;;0.80;;
72117;SDS011;59992;47.490;8.736;2022-07-03T11:20:09;1.80;;;0.60;;
72117;SDS011;59992;47.490;8.736;2022-07-03T11:23:16;1.20;;;0.70;;
72117;SDS011;59992;47.490;8.736;2022-07-03T11:26:21;1.30;;;0.80;;
72117;SDS011;59992;47.490;8.736;2022-07-03T11:29:26;3.00;;;1.00;;
72117;SDS011;59992;47.490;8.736;2022-07-03T11:35:51;2.70;;;1.00;;
72117;SDS011;59992;47.490;8.736;2022-07-03T11:38:41;2.70;;;1.20;;
72117;SDS011;59992;47.490;8.736;2022-07-03T11:41:31;2.00;;;0.90;;
72117;SDS011;59992;47.490;8.736;2022-07-03T11:44:33;2.90;;;1.10;;
72117;SDS011;59992;47.490;8.736;2022-07-03T11:47:21;1.90;;;1.00;;
72117;SDS011;59992;47.490;8.736;2022-07-03T11:50:10;2.50;;;0.90;;
72117;SDS011;59992;47.490;8.736;2022-07-03T11:52:59;1.70;;;1.20;;
72117;SDS011;59992;47.490;8.736;2022-07-03T11:55:48;2.70;;;1.20;;
72117;SDS011;59992;47.490;8.736;2022-07-03T11:58:42;1.40;;;1.00;;
72117;SDS011;59992;47.490;8.736;2022-07-03T12:01:32;1.80;;;1.10;;
72117;SDS011;59992;47.490;8.736;2022-07-03T12:04:22;2.60;;;1.00;;
72117;SDS011;59992;47.490;8.736;2022-07-03T12:07:10;1.40;;;1.10;;
72117;SDS011;59992;47.490;8.736;2022-07-03T12:09:59;1.40;;;1.00;;
72117;SDS011;59992;47.490;8.736;2022-07-03T12:12:48;2.10;;;1.10;;
72117;SDS011;59992;47.490;8.736;2022-07-03T12:15:37;1.60;;;1.10;;
72117;SDS011;59992;47.490;8.736;2022-07-03T12:18:27;1.40;;;1.00;;
72117;SDS011;59992;47.490;8.736;2022-07-03T12:21:31;2.80;;;1.00;;
72117;SDS011;59992;47.490;8.736;2022-07-03T12:24:24;1.20;;;1.10;;
72117;SDS011;59992;47.490;8.736;2022-07-03T12:27:13;1.90;;;1.20;;
72117;SDS011;59992;47.490;8.736;2022-07-03T12:30:04;1.20;;;1.00;;
72117;SDS011;59992;47.490;8.736;2022-07-03T12:32:54;1.90;;;1.20;;
72117;SDS011;59992;47.490;8.736;2022-07-03T12:35:44;1.00;;;0.70;;
72117;SDS011;59992;47.490;8.736;2022-07-03T12:38:48;1.60;;;1.10;;
72117;SDS011;59992;47.490;8.736;2022-07-03T12:41:39;1.90;;;1.20;;
72117;SDS011;59992;47.490;8.736;2022-07-03T12:44:27;3.50;;;1.20;;
72117;SDS011;59992;47.490;8.736;2022-07-03T12:47:16;2.60;;;1.30;;
72117;SDS011;59992;47.490;8.736;2022-07-03T12:50:05;1.80;;;1.10;;
72117;SDS011;59992;47.490;8.736;2022-07-03T12:52:58;2.10;;;1.10;;
72117;SDS011;59992;47.490;8.736;2022-07-03T12:55:47;1.60;;;1.00;;
72117;SDS011;59992;47.490;8.736;2022-07-03T12:58:36;2.30;;;1.20;;
72117;SDS011;59992;47.490;8.736;2022-07-03T13:01:45;2.30;;;1.10;;
72117;SDS011;59992;47.490;8.736;2022-07-03T13:04:50;5.50;;;2.20;;
72117;SDS011;59992;47.490;8.736;2022-07-03T13:07:39;4.30;;;1.30;;
72117;SDS011;59992;47.490;8.736;2022-07-03T13:10:28;3.10;;;1.40;;
72117;SDS011;59992;47.490;8.736;2022-07-03T13:13:17;3.90;;;1.30;;
72117;SDS011;59992;47.490;8.736;2022-07-03T13:19:12;3.10;;;1.40;;
72117;SDS011;59992;47.490;8.736;2022-07-03T13:22:02;2.10;;;1.10;;
72117;SDS011;59992;47.490;8.736;2022-07-03T13:24:51;1.60;;;1.00;;
72117;SDS011;59992;47.490;8.736;2022-07-03T13:27:39;2.30;;;1.20;;
72117;SDS011;59992;47.490;8.736;2022-07-03T13:30:29;3.00;;;1.10;;
72117;SDS011;59992;47.490;8.736;2022-07-03T13:33:18;2.80;;;1.00;;
72117;SDS011;59992;47.490;8.736;2022-07-03T13:36:07;2.10;;;1.20;;
72117;SDS011;59992;47.490;8.736;2022-07-03T13:38:56;2.80;;;1.10;;
72117;SDS011;59992;47.490;8.736;2022-07-03T13:41:45;2.80;;;1.10;;
72117;SDS011;59992;47.490;8.736;2022-07-03T13:44:34;6.00;;;1.30;;
72117;SDS011;59992;47.490;8.736;2022-07-03T13:47:24;2.10;;;1.10;;
72117;SDS011;59992;47.490;8.736;2022-07-03T13:50:13;2.50;;;1.10;;
72117;SDS011;59992;47.490;8.736;2022-07-03T13:53:02;2.60;;;1.20;;
72117;SDS011;59992;47.490;8.736;2022-07-03T13:55:51;3.10;;;1.20;;
72117;SDS011;59992;47.490;8.736;2022-07-03T13:58:43;4.70;;;1.70;;
72117;SDS011;59992;47.490;8.736;2022-07-03T14:01:34;1.60;;;1.20;;
72117;SDS011;59992;47.490;8.736;2022-07-03T14:04:23;2.20;;;1.20;;
72117;SDS011;59992;47.490;8.736;2022-07-03T14:07:11;2.90;;;1.40;;
72117;SDS011;59992;47.490;8.736;2022-07-03T14:10:01;2.10;;;1.40;;
72117;SDS011;59992;47.490;8.736;2022-07-03T14:12:50;3.20;;;1.30;;
72117;SDS011;59992;47.490;8.736;2022-07-03T14:15:39;2.40;;;1.20;;
72117;SDS011;59992;47.490;8.736;2022-07-03T14:18:28;1.80;;;1.20;;
72117;SDS011;59992;47.490;8.736;2022-07-03T14:21:17;2.00;;;1.30;;
72117;SDS011;59992;47.490;8.736;2022-07-03T14:24:06;3.90;;;1.30;;
72117;SDS011;59992;47.490;8.736;2022-07-03T14:26:54;2.00;;;1.40;;
72117;SDS011;59992;47.490;8.736;2022-07-03T14:30:01;3.10;;;1.40;;
72117;SDS011;59992;47.490;8.736;2022-07-03T14:33:08;3.40;;;1.50;;
72117;SDS011;59992;47.490;8.736;2022-07-03T14:35:56;3.20;;;1.30;;
72117;SDS011;59992;47.490;8.736;2022-07-03T14:38:45;3.20;;;1.40;;
72117;SDS011;59992;47.490;8.736;2022-07-03T14:41:33;2.60;;;1.20;;
72117;SDS011;59992;47.490;8.736;2022-07-03T14:44:22;1.90;;;1.30;;
72117;SDS011;59992;47.490;8.736;2022-07-03T14:47:12;1.80;;;1.20;;
72117;SDS011;59992;47.490;8.736;2022-07-03T14:50:01;2.10;;;1.20;;
72117;SDS011;59992;47.490;8.736;2022-07-03T14:52:50;1.90;;;1.30;;
72117;SDS011;59992;47.490;8.736;2022-07-03T14:55:39;2.60;;;1.50;;
72117;SDS011;59992;47.490;8.736;2022-07-03T14:58:28;1.80;;;1.10;;
72117;SDS011;59992;47.490;8.736;2022-07-03T15:01:20;2.00;;;1.20;;
72117;SDS011;59992;47.490;8.736;2022-07-03T15:04:13;2.80;;;1.20;;
72117;SDS011;59992;47.490;8.736;2022-07-03T15:07:14;2.00;;;1.00;;
72117;SDS011;59992;47.490;8.736;2022-07-03T15:10:06;1.50;;;1.10;;
72117;SDS011;59992;47.490;8.736;2022-07-03T15:12:57;3.50;;;1.20;;
72117;SDS011;59992;47.490;8.736;2022-07-03T15:15:49;2.70;;;1.30;;
72117;SDS011;59992;47.490;8.736;2022-07-03T15:18:38;1.80;;;1.10;;
72117;SDS011;59992;47.490;8.736;2022-07-03T15:21:27;2.70;;;1.50;;
72117;SDS011;59992;47.490;8.736;2022-07-03T15:24:18;2.60;;;1.10;;
72117;SDS011;59992;47.490;8.736;2022-07-03T15:27:14;1.60;;;1.30;;
72117;SDS011;59992;47.490;8.736;2022-07-03T15:30:09;2.40;;;1.20;;
72117;SDS011;59992;47.490;8.736;2022-07-03T15:32:59;2.30;;;1.30;;
72117;SDS011;59992;47.490;8.736;2022-07-03T15:35:49;2.10;;;1.10;;
72117;SDS011;59992;47.490;8.736;2022-07-03T15:38:47;2.80;;;1.40;;
72117;SDS011;59992;47.490;8.736;2022-07-03T15:41:47;2.80;;;1.30;;
72117;SDS011;59992;47.490;8.736;2022-07-03T15:44:49;4.20;;;1.30;;
72117;SDS011;59992;47.490;8.736;2022-07-03T15:47:46;5.10;;;2.90;;
72117;SDS011;59992;47.490;8.736;2022-07-03T15:50:48;6.90;;;5.20;;
72117;SDS011;59992;47.490;8.736;2022-07-03T15:53:45;3.70;;;3.20;;
72117;SDS011;59992;47.490;8.736;2022-07-03T15:56:38;3.20;;;1.70;;
72117;SDS011;59992;47.490;8.736;2022-07-03T15:59:30;2.50;;;1.30;;
72117;SDS011;59992;47.490;8.736;2022-07-03T16:02:26;4.30;;;1.90;;
72117;SDS011;59992;47.490;8.736;2022-07-03T16:05:27;6.00;;;2.70;;
72117;SDS011;59992;47.490;8.736;2022-07-03T16:08:17;4.60;;;1.90;;
72117;SDS011;59992;47.490;8.736;2022-07-03T16:11:07;4.70;;;2.80;;
72117;SDS011;59992;47.490;8.736;2022-07-03T16:13:59;4.20;;;2.20;;
72117;SDS011;59992;47.490;8.736;2022-07-03T16:16:49;7.50;;;4.80;;
72117;SDS011;59992;47.490;8.736;2022-07-03T16:19:38;5.90;;;4.70;;
72117;SDS011;59992;47.490;8.736;2022-07-03T16:22:32;4.60;;;2.10;;
72117;SDS011;59992;47.490;8.736;2022-07-03T16:25:31;4.90;;;2.30;;
72117;SDS011;59992;47.490;8.736;2022-07-03T16:28:20;5.40;;;1.90;;
72117;SDS011;59992;47.490;8.736;2022-07-03T16:31:11;3.50;;;1.40;;
72117;SDS011;59992;47.490;8.736;2022-07-03T16:34:03;2.80;;;1.60;;
72117;SDS011;59992;47.490;8.736;2022-07-03T16:36:57;2.30;;;1.50;;
72117;SDS011;59992;47.490;8.736;2022-07-03T16:39:49;4.30;;;1.50;;
72117;SDS011;59992;47.490;8.736;2022-07-03T16:42:43;3.60;;;1.40;;
72117;SDS011;59992;47.490;8.736;2022-07-03T16:45:34;4.10;;;1.40;;
72117;SDS011;59992;47.490;8.736;2022-07-03T16:48:25;4.50;;;1.50;;
72117;SDS011;59992;47.490;8.736;2022-07-03T16:51:17;3.10;;;1.50;;
72117;SDS011;59992;47.490;8.736;2022-07-03T16:54:09;3.00;;;1.50;;
72117;SDS011;59992;47.490;8.736;2022-07-03T16:56:59;3.50;;;1.80;;
72117;SDS011;59992;47.490;8.736;2022-07-03T16:59:49;3.90;;;1.80;;
72117;SDS011;59992;47.490;8.736;2022-07-03T17:02:40;2.60;;;1.40;;
72117;SDS011;59992;47.490;8.736;2022-07-03T17:05:30;1.50;;;1.30;;
72117;SDS011;59992;47.490;8.736;2022-07-03T17:08:19;6.00;;;1.60;;
72117;SDS011;59992;47.490;8.736;2022-07-03T17:11:09;1.90;;;1.30;;
72117;SDS011;59992;47.490;8.736;2022-07-03T17:13:58;4.10;;;1.40;;
72117;SDS011;59992;47.490;8.736;2022-07-03T17:16:49;3.10;;;1.40;;
72117;SDS011;59992;47.490;8.736;2022-07-03T17:19:43;3.70;;;1.50;;
72117;SDS011;59992;47.490;8.736;2022-07-03T17:22:41;3.60;;;1.60;;